sensor_id;sensor_type;location;lat;lon;timestamp;temperature;humidity
69189;DHT22;56302;52.322;5.926;2023-04-22T00:01:29;8.70;86.20
69189;DHT22;56302;52.322;5.926;2023-04-22T00:03:55;8.70;86.40
69189;DHT22;56302;52.322;5.926;2023-04-22T00:06:20;8.70;86.50
69189;DHT22;56302;52.322;5.926;2023-04-22T00:08:46;8.70;86.40
69189;DHT22;56302;52.322;5.926;2023-04-22T00:11:11;8.70;85.80
69189;DHT22;56302;52.322;5.926;2023-04-22T00:13:37;8.50;87.10
69189;DHT22;56302;52.322;5.926;2023-04-22T00:16:03;8.40;88.50
69189;DHT22;56302;52.322;5.926;2023-04-22T00:18:29;8.40;88.00
69189;DHT22;56302;52.322;5.926;2023-04-22T00:20:55;8.40;87.40
69189;DHT22;56302;52.322;5.926;2023-04-22T00:23:20;8.30;87.20
69189;DHT22;56302;52.322;5.926;2023-04-22T00:25:46;8.20;87.30
69189;DHT22;56302;52.322;5.926;2023-04-22T00:28:11;8.10;87.80
69189;DHT22;56302;52.322;5.926;2023-04-22T00:30:37;8.00;87.80
69189;DHT22;56302;52.322;5.926;2023-04-22T00:33:02;7.70;88.70
69189;DHT22;56302;52.322;5.926;2023-04-22T00:35:28;7.80;88.20
69189;DHT22;56302;52.322;5.926;2023-04-22T00:37:53;7.90;87.20
69189;DHT22;56302;52.322;5.926;2023-04-22T00:40:19;7.90;86.50
69189;DHT22;56302;52.322;5.926;2023-04-22T00:42:48;8.00;85.80
69189;DHT22;56302;52.322;5.926;2023-04-22T00:45:15;7.90;85.50
69189;DHT22;56302;52.322;5.926;2023-04-22T00:47:43;7.90;85.40
69189;DHT22;56302;52.322;5.926;2023-04-22T00:50:09;7.80;85.50
69189;DHT22;56302;52.322;5.926;2023-04-22T00:52:35;7.80;85.30
69189;DHT22;56302;52.322;5.926;2023-04-22T00:55:00;7.80;85.40
69189;DHT22;56302;52.322;5.926;2023-04-22T00:57:28;7.80;84.80
69189;DHT22;56302;52.322;5.926;2023-04-22T00:59:54;7.60;84.90
69189;DHT22;56302;52.322;5.926;2023-04-22T01:02:19;7.60;85.90
69189;DHT22;56302;52.322;5.926;2023-04-22T01:04:45;7.60;85.50
69189;DHT22;56302;52.322;5.926;2023-04-22T01:07:11;7.50;85.50
69189;DHT22;56302;52.322;5.926;2023-04-22T01:09:37;7.00;87.80
69189;DHT22;56302;52.322;5.926;2023-04-22T01:12:04;7.00;88.70
69189;DHT22;56302;52.322;5.926;2023-04-22T01:14:30;7.00;89.60
69189;DHT22;56302;52.322;5.926;2023-04-22T01:16:56;7.10;89.30
69189;DHT22;56302;52.322;5.926;2023-04-22T01:19:22;7.20;87.90
69189;DHT22;56302;52.322;5.926;2023-04-22T01:21:50;7.30;86.80
69189;DHT22;56302;52.322;5.926;2023-04-22T01:24:15;7.20;86.50
69189;DHT22;56302;52.322;5.926;2023-04-22T01:26:41;7.10;87.40
69189;DHT22;56302;52.322;5.926;2023-04-22T01:29:07;7.00;87.50
69189;DHT22;56302;52.322;5.926;2023-04-22T01:31:33;7.10;86.30
69189;DHT22;56302;52.322;5.926;2023-04-22T01:33:59;7.10;85.90
69189;DHT22;56302;52.322;5.926;2023-04-22T01:36:24;7.10;85.50
69189;DHT22;56302;52.322;5.926;2023-04-22T01:38:50;7.10;85.60
69189;DHT22;56302;52.322;5.926;2023-04-22T01:41:15;7.00;85.60
69189;DHT22;56302;52.322;5.926;2023-04-22T01:43:42;7.00;84.90
69189;DHT22;56302;52.322;5.926;2023-04-22T01:46:08;6.90;84.50
69189;DHT22;56302;52.322;5.926;2023-04-22T01:48:34;6.90;84.60
69189;DHT22;56302;52.322;5.926;2023-04-22T01:51:00;6.90;84.30
69189;DHT22;56302;52.322;5.926;2023-04-22T01:53:26;6.80;84.10
69189;DHT22;56302;52.322;5.926;2023-04-22T01:55:52;6.80;84.00
69189;DHT22;56302;52.322;5.926;2023-04-22T01:58:18;6.80;84.40
69189;DHT22;56302;52.322;5.926;2023-04-22T02:00:43;6.80;84.70
69189;DHT22;56302;52.322;5.926;2023-04-22T02:03:09;6.60;85.50
69189;DHT22;56302;52.322;5.926;2023-04-22T02:05:36;6.50;86.70
69189;DHT22;56302;52.322;5.926;2023-04-22T02:08:02;6.50;86.80
69189;DHT22;56302;52.322;5.926;2023-04-22T02:10:27;6.50;86.70
69189;DHT22;56302;52.322;5.926;2023-04-22T02:12:53;6.50;86.50
69189;DHT22;56302;52.322;5.926;2023-04-22T02:15:18;6.40;86.60
69189;DHT22;56302;52.322;5.926;2023-04-22T02:17:44;6.20;88.10
69189;DHT22;56302;52.322;5.926;2023-04-22T02:20:11;6.20;87.70
69189;DHT22;56302;52.322;5.926;2023-04-22T02:22:37;6.40;86.80
69189;DHT22;56302;52.322;5.926;2023-04-22T02:25:03;6.40;86.20
69189;DHT22;56302;52.322;5.926;2023-04-22T02:27:29;6.40;85.90
69189;DHT22;56302;52.322;5.926;2023-04-22T02:29:54;6.30;87.10
69189;DHT22;56302;52.322;5.926;2023-04-22T02:32:20;6.20;88.50
69189;DHT22;56302;52.322;5.926;2023-04-22T02:34:46;6.20;87.60
69189;DHT22;56302;52.322;5.926;2023-04-22T02:37:12;6.30;87.40
69189;DHT22;56302;52.322;5.926;2023-04-22T02:39:37;6.30;87.20
69189;DHT22;56302;52.322;5.926;2023-04-22T02:42:03;6.30;86.90
69189;DHT22;56302;52.322;5.926;2023-04-22T02:44:28;6.30;86.90
69189;DHT22;56302;52.322;5.926;2023-04-22T02:46:54;6.30;86.90
69189;DHT22;56302;52.322;5.926;2023-04-22T02:49:19;6.30;86.60
69189;DHT22;56302;52.322;5.926;2023-04-22T02:51:45;6.20;86.40
69189;DHT22;56302;52.322;5.926;2023-04-22T02:54:11;6.20;86.60
69189;DHT22;56302;52.322;5.926;2023-04-22T02:56:36;6.20;86.80
69189;DHT22;56302;52.322;5.926;2023-04-22T02:59:02;6.10;86.60
69189;DHT22;56302;52.322;5.926;2023-04-22T03:01:27;6.10;86.60
69189;DHT22;56302;52.322;5.926;2023-04-22T03:03:53;6.10;86.60
69189;DHT22;56302;52.322;5.926;2023-04-22T03:06:18;6.10;86.90
69189;DHT22;56302;52.322;5.926;2023-04-22T03:08:44;6.00;86.40
69189;DHT22;56302;52.322;5.926;2023-04-22T03:11:09;6.00;86.30
69189;DHT22;56302;52.322;5.926;2023-04-22T03:13:35;5.90;86.30
69189;DHT22;56302;52.322;5.926;2023-04-22T03:16:00;5.90;86.80
69189;DHT22;56302;52.322;5.926;2023-04-22T03:18:26;5.50;88.10
69189;DHT22;56302;52.322;5.926;2023-04-22T03:20:51;5.30;90.50
69189;DHT22;56302;52.322;5.926;2023-04-22T03:23:17;5.50;90.30
69189;DHT22;56302;52.322;5.926;2023-04-22T03:25:42;5.50;89.40
69189;DHT22;56302;52.322;5.926;2023-04-22T03:28:08;5.60;88.80
69189;DHT22;56302;52.322;5.926;2023-04-22T03:30:33;5.70;88.40
69189;DHT22;56302;52.322;5.926;2023-04-22T03:32:59;5.70;88.10
69189;DHT22;56302;52.322;5.926;2023-04-22T03:35:24;5.70;87.60
69189;DHT22;56302;52.322;5.926;2023-04-22T03:37:50;5.70;87.30
69189;DHT22;56302;52.322;5.926;2023-04-22T03:40:15;5.30;89.80
69189;DHT22;56302;52.322;5.926;2023-04-22T03:42:41;5.10;91.70
69189;DHT22;56302;52.322;5.926;2023-04-22T03:45:07;5.20;92.20
69189;DHT22;56302;52.322;5.926;2023-04-22T03:47:32;5.30;91.40
69189;DHT22;56302;52.322;5.926;2023-04-22T03:49:58;5.50;90.50
69189;DHT22;56302;52.322;5.926;2023-04-22T03:52:23;5.60;89.80
69189;DHT22;56302;52.322;5.926;2023-04-22T03:54:49;5.60;89.30
69189;DHT22;56302;52.322;5.926;2023-04-22T03:57:14;5.60;89.00
69189;DHT22;56302;52.322;5.926;2023-04-22T03:59:40;5.60;88.70
69189;DHT22;56302;52.322;5.926;2023-04-22T04:02:05;5.60;88.50
69189;DHT22;56302;52.322;5.926;2023-04-22T04:04:32;5.60;88.20
69189;DHT22;56302;52.322;5.926;2023-04-22T04:06:59;5.60;88.40
69189;DHT22;56302;52.322;5.926;2023-04-22T04:09:25;5.60;88.40
69189;DHT22;56302;52.322;5.926;2023-04-22T04:11:51;5.60;88.60
69189;DHT22;56302;52.322;5.926;2023-04-22T04:14:16;5.60;88.60
69189;DHT22;56302;52.322;5.926;2023-04-22T04:16:42;5.50;88.70
69189;DHT22;56302;52.322;5.926;2023-04-22T04:19:08;5.50;88.90
69189;DHT22;56302;52.322;5.926;2023-04-22T04:21:33;5.40;89.20
69189;DHT22;56302;52.322;5.926;2023-04-22T04:23:59;5.30;89.90
69189;DHT22;56302;52.322;5.926;2023-04-22T04:26:25;5.30;90.50
69189;DHT22;56302;52.322;5.926;2023-04-22T04:28:52;5.20;91.00
69189;DHT22;56302;52.322;5.926;2023-04-22T04:31:18;5.10;92.50
69189;DHT22;56302;52.322;5.926;2023-04-22T04:33:43;5.10;93.20
69189;DHT22;56302;52.322;5.926;2023-04-22T04:36:09;5.20;93.50
69189;DHT22;56302;52.322;5.926;2023-04-22T04:38:35;5.20;93.90
69189;DHT22;56302;52.322;5.926;2023-04-22T04:41:00;5.20;93.70
69189;DHT22;56302;52.322;5.926;2023-04-22T04:43:27;5.10;94.10
69189;DHT22;56302;52.322;5.926;2023-04-22T04:45:53;5.10;94.50
69189;DHT22;56302;52.322;5.926;2023-04-22T04:48:19;5.20;94.40
69189;DHT22;56302;52.322;5.926;2023-04-22T04:50:45;5.30;93.90
69189;DHT22;56302;52.322;5.926;2023-04-22T04:53:11;5.30;93.40
69189;DHT22;56302;52.322;5.926;2023-04-22T04:55:37;5.20;93.40
69189;DHT22;56302;52.322;5.926;2023-04-22T04:58:03;5.30;93.20
69189;DHT22;56302;52.322;5.926;2023-04-22T05:00:28;5.30;93.10
69189;DHT22;56302;52.322;5.926;2023-04-22T05:02:54;5.30;93.30
69189;DHT22;56302;52.322;5.926;2023-04-22T05:05:19;5.30;93.20
69189;DHT22;56302;52.322;5.926;2023-04-22T05:07:45;5.30;93.30
69189;DHT22;56302;52.322;5.926;2023-04-22T05:10:11;5.20;94.10
69189;DHT22;56302;52.322;5.926;2023-04-22T05:12:37;5.30;94.60
69189;DHT22;56302;52.322;5.926;2023-04-22T05:15:02;5.40;94.70
69189;DHT22;56302;52.322;5.926;2023-04-22T05:17:28;5.20;95.20
69189;DHT22;56302;52.322;5.926;2023-04-22T05:19:54;5.20;95.80
69189;DHT22;56302;52.322;5.926;2023-04-22T05:22:20;5.10;96.50
69189;DHT22;56302;52.322;5.926;2023-04-22T05:24:46;5.10;96.90
69189;DHT22;56302;52.322;5.926;2023-04-22T05:27:11;5.20;97.30
69189;DHT22;56302;52.322;5.926;2023-04-22T05:29:37;5.20;97.60
69189;DHT22;56302;52.322;5.926;2023-04-22T05:32:02;5.20;97.90
69189;DHT22;56302;52.322;5.926;2023-04-22T05:34:28;5.30;98.10
69189;DHT22;56302;52.322;5.926;2023-04-22T05:36:53;5.30;98.50
69189;DHT22;56302;52.322;5.926;2023-04-22T05:39:19;5.40;98.80
69189;DHT22;56302;52.322;5.926;2023-04-22T05:41:45;5.50;99.20
69189;DHT22;56302;52.322;5.926;2023-04-22T05:44:10;5.60;99.40
69189;DHT22;56302;52.322;5.926;2023-04-22T05:46:36;5.60;99.40
69189;DHT22;56302;52.322;5.926;2023-04-22T05:49:02;5.70;99.30
69189;DHT22;56302;52.322;5.926;2023-04-22T05:51:27;5.80;99.20
69189;DHT22;56302;52.322;5.926;2023-04-22T05:53:53;5.80;99.20
69189;DHT22;56302;52.322;5.926;2023-04-22T05:56:19;5.90;99.10
69189;DHT22;56302;52.322;5.926;2023-04-22T05:58:45;5.90;98.80
69189;DHT22;56302;52.322;5.926;2023-04-22T06:01:11;6.00;98.70
69189;DHT22;56302;52.322;5.926;2023-04-22T06:03:37;6.00;98.30
69189;DHT22;56302;52.322;5.926;2023-04-22T06:06:02;6.10;98.00
69189;DHT22;56302;52.322;5.926;2023-04-22T06:08:29;6.10;98.00
69189;DHT22;56302;52.322;5.926;2023-04-22T06:10:55;6.20;98.30
69189;DHT22;56302;52.322;5.926;2023-04-22T06:13:21;6.20;98.60
69189;DHT22;56302;52.322;5.926;2023-04-22T06:15:46;6.30;98.80
69189;DHT22;56302;52.322;5.926;2023-04-22T06:18:12;6.30;99.10
69189;DHT22;56302;52.322;5.926;2023-04-22T06:20:38;6.30;99.30
69189;DHT22;56302;52.322;5.926;2023-04-22T06:23:03;6.40;99.50
69189;DHT22;56302;52.322;5.926;2023-04-22T06:25:32;6.40;99.70
69189;DHT22;56302;52.322;5.926;2023-04-22T06:27:58;6.50;99.90
69189;DHT22;56302;52.322;5.926;2023-04-22T06:30:24;6.60;99.90
69189;DHT22;56302;52.322;5.926;2023-04-22T06:32:53;6.70;99.90
69189;DHT22;56302;52.322;5.926;2023-04-22T06:35:20;6.80;99.90
69189;DHT22;56302;52.322;5.926;2023-04-22T06:37:46;7.00;99.90
69189;DHT22;56302;52.322;5.926;2023-04-22T06:40:13;7.00;99.90
69189;DHT22;56302;52.322;5.926;2023-04-22T06:42:39;7.10;99.90
69189;DHT22;56302;52.322;5.926;2023-04-22T06:45:05;7.30;99.90
69189;DHT22;56302;52.322;5.926;2023-04-22T06:47:30;7.30;99.90
69189;DHT22;56302;52.322;5.926;2023-04-22T06:49:56;7.50;99.90
69189;DHT22;56302;52.322;5.926;2023-04-22T06:52:21;7.50;99.90
69189;DHT22;56302;52.322;5.926;2023-04-22T06:54:47;7.60;99.90
69189;DHT22;56302;52.322;5.926;2023-04-22T06:57:12;7.70;99.90
69189;DHT22;56302;52.322;5.926;2023-04-22T06:59:38;7.90;99.90
69189;DHT22;56302;52.322;5.926;2023-04-22T07:02:03;7.90;99.90
69189;DHT22;56302;52.322;5.926;2023-04-22T07:04:30;8.00;99.90
69189;DHT22;56302;52.322;5.926;2023-04-22T07:06:56;8.20;99.90
69189;DHT22;56302;52.322;5.926;2023-04-22T07:09:22;8.30;99.90
69189;DHT22;56302;52.322;5.926;2023-04-22T07:11:48;8.50;99.90
69189;DHT22;56302;52.322;5.926;2023-04-22T07:14:13;8.60;99.90
69189;DHT22;56302;52.322;5.926;2023-04-22T07:16:39;8.90;99.90
69189;DHT22;56302;52.322;5.926;2023-04-22T07:19:04;9.10;99.90
69189;DHT22;56302;52.322;5.926;2023-04-22T07:21:31;9.50;99.90
69189;DHT22;56302;52.322;5.926;2023-04-22T07:23:57;9.80;99.90
69189;DHT22;56302;52.322;5.926;2023-04-22T07:26:23;9.90;99.70
69189;DHT22;56302;52.322;5.926;2023-04-22T07:28:48;9.90;98.40
69189;DHT22;56302;52.322;5.926;2023-04-22T07:31:14;9.80;98.10
69189;DHT22;56302;52.322;5.926;2023-04-22T07:33:40;10.00;98.00
69189;DHT22;56302;52.322;5.926;2023-04-22T07:36:06;10.10;97.20
69189;DHT22;56302;52.322;5.926;2023-04-22T07:38:32;10.20;97.00
69189;DHT22;56302;52.322;5.926;2023-04-22T07:40:57;10.40;97.30
69189;DHT22;56302;52.322;5.926;2023-04-22T07:43:23;10.60;97.20
69189;DHT22;56302;52.322;5.926;2023-04-22T07:45:48;10.60;96.30
69189;DHT22;56302;52.322;5.926;2023-04-22T07:48:14;10.50;95.70
69189;DHT22;56302;52.322;5.926;2023-04-22T07:50:40;10.90;96.10
69189;DHT22;56302;52.322;5.926;2023-04-22T07:53:05;11.10;95.20
69189;DHT22;56302;52.322;5.926;2023-04-22T07:55:31;11.10;94.30
69189;DHT22;56302;52.322;5.926;2023-04-22T07:57:56;11.40;93.90
69189;DHT22;56302;52.322;5.926;2023-04-22T08:00:24;11.70;94.00
69189;DHT22;56302;52.322;5.926;2023-04-22T08:02:49;11.50;91.60
69189;DHT22;56302;52.322;5.926;2023-04-22T08:05:15;11.70;92.70
69189;DHT22;56302;52.322;5.926;2023-04-22T08:07:41;11.90;91.50
69189;DHT22;56302;52.322;5.926;2023-04-22T08:10:07;12.00;92.00
69189;DHT22;56302;52.322;5.926;2023-04-22T08:12:32;12.40;92.40
69189;DHT22;56302;52.322;5.926;2023-04-22T08:14:58;12.20;90.00
69189;DHT22;56302;52.322;5.926;2023-04-22T08:17:23;12.60;91.70
69189;DHT22;56302;52.322;5.926;2023-04-22T08:19:49;12.60;88.70
69189;DHT22;56302;52.322;5.926;2023-04-22T08:22:15;12.70;89.30
69189;DHT22;56302;52.322;5.926;2023-04-22T08:24:42;13.00;89.10
69189;DHT22;56302;52.322;5.926;2023-04-22T08:27:07;13.00;88.10
69189;DHT22;56302;52.322;5.926;2023-04-22T08:29:33;13.10;87.30
69189;DHT22;56302;52.322;5.926;2023-04-22T08:31:58;13.40;88.40
69189;DHT22;56302;52.322;5.926;2023-04-22T08:34:24;13.70;86.30
69189;DHT22;56302;52.322;5.926;2023-04-22T08:36:50;13.90;84.20
69189;DHT22;56302;52.322;5.926;2023-04-22T08:39:16;14.40;86.10
69189;DHT22;56302;52.322;5.926;2023-04-22T08:41:43;15.00;85.30
69189;DHT22;56302;52.322;5.926;2023-04-22T08:44:09;15.40;82.90
69189;DHT22;56302;52.322;5.926;2023-04-22T08:46:35;15.10;79.70
69189;DHT22;56302;52.322;5.926;2023-04-22T08:49:01;15.10;79.90
69189;DHT22;56302;52.322;5.926;2023-04-22T08:51:29;14.90;80.10
69189;DHT22;56302;52.322;5.926;2023-04-22T08:53:56;14.70;79.80
69189;DHT22;56302;52.322;5.926;2023-04-22T08:56:23;14.40;81.00
69189;DHT22;56302;52.322;5.926;2023-04-22T08:58:49;14.40;81.80
69189;DHT22;56302;52.322;5.926;2023-04-22T09:01:16;14.80;82.70
69189;DHT22;56302;52.322;5.926;2023-04-22T09:03:43;14.80;79.50
69189;DHT22;56302;52.322;5.926;2023-04-22T09:06:10;14.40;79.10
69189;DHT22;56302;52.322;5.926;2023-04-22T09:08:37;14.20;81.20
69189;DHT22;56302;52.322;5.926;2023-04-22T09:11:03;14.30;82.80
69189;DHT22;56302;52.322;5.926;2023-04-22T09:13:28;14.90;81.40
69189;DHT22;56302;52.322;5.926;2023-04-22T09:15:54;15.30;80.20
69189;DHT22;56302;52.322;5.926;2023-04-22T09:18:19;15.50;78.30
69189;DHT22;56302;52.322;5.926;2023-04-22T09:20:48;15.20;76.80
69189;DHT22;56302;52.322;5.926;2023-04-22T09:23:18;15.20;77.90
69189;DHT22;56302;52.322;5.926;2023-04-22T09:25:44;15.20;78.30
69189;DHT22;56302;52.322;5.926;2023-04-22T09:28:11;15.60;76.80
69189;DHT22;56302;52.322;5.926;2023-04-22T09:30:44;15.50;76.00
69189;DHT22;56302;52.322;5.926;2023-04-22T09:33:10;15.60;74.60
69189;DHT22;56302;52.322;5.926;2023-04-22T09:35:40;15.60;78.80
69189;DHT22;56302;52.322;5.926;2023-04-22T09:38:08;15.90;75.30
69189;DHT22;56302;52.322;5.926;2023-04-22T09:40:35;16.20;76.90
69189;DHT22;56302;52.322;5.926;2023-04-22T09:43:06;16.50;73.90
69189;DHT22;56302;52.322;5.926;2023-04-22T09:45:36;16.70;73.70
69189;DHT22;56302;52.322;5.926;2023-04-22T09:48:06;17.00;70.90
69189;DHT22;56302;52.322;5.926;2023-04-22T09:50:34;16.70;74.40
69189;DHT22;56302;52.322;5.926;2023-04-22T09:53:08;17.10;75.80
69189;DHT22;56302;52.322;5.926;2023-04-22T09:55:36;17.80;72.60
69189;DHT22;56302;52.322;5.926;2023-04-22T09:58:07;17.90;70.40
69189;DHT22;56302;52.322;5.926;2023-04-22T10:00:36;17.70;69.50
69189;DHT22;56302;52.322;5.926;2023-04-22T10:03:04;17.80;69.60
69189;DHT22;56302;52.322;5.926;2023-04-22T10:05:30;17.80;70.00
69189;DHT22;56302;52.322;5.926;2023-04-22T10:07:56;17.80;70.60
69189;DHT22;56302;52.322;5.926;2023-04-22T10:10:22;17.90;69.20
69189;DHT22;56302;52.322;5.926;2023-04-22T10:12:48;17.70;70.10
69189;DHT22;56302;52.322;5.926;2023-04-22T10:15:14;17.60;70.80
69189;DHT22;56302;52.322;5.926;2023-04-22T10:17:40;17.60;72.10
69189;DHT22;56302;52.322;5.926;2023-04-22T10:20:10;17.80;70.30
69189;DHT22;56302;52.322;5.926;2023-04-22T10:22:39;18.20;69.00
69189;DHT22;56302;52.322;5.926;2023-04-22T10:25:23;18.40;67.30
69189;DHT22;56302;52.322;5.926;2023-04-22T10:28:03;17.80;69.70
69189;DHT22;56302;52.322;5.926;2023-04-22T10:30:32;17.80;72.00
69189;DHT22;56302;52.322;5.926;2023-04-22T10:38:41;17.60;71.00
69189;DHT22;56302;52.322;5.926;2023-04-22T10:41:31;17.60;70.30
69189;DHT22;56302;52.322;5.926;2023-04-22T10:44:01;17.60;68.40
69189;DHT22;56302;52.322;5.926;2023-04-22T10:49:21;17.90;70.50
69189;DHT22;56302;52.322;5.926;2023-04-22T10:51:55;17.50;69.60
69189;DHT22;56302;52.322;5.926;2023-04-22T10:57:10;17.30;72.10
69189;DHT22;56302;52.322;5.926;2023-04-22T11:02:13;17.10;70.90
69189;DHT22;56302;52.322;5.926;2023-04-22T11:04:39;16.80;71.70
69189;DHT22;56302;52.322;5.926;2023-04-22T11:09:46;17.00;71.70
69189;DHT22;56302;52.322;5.926;2023-04-22T11:15:13;17.80;70.50
69189;DHT22;56302;52.322;5.926;2023-04-22T11:17:41;17.90;69.60
69189;DHT22;56302;52.322;5.926;2023-04-22T11:20:08;18.10;69.20
69189;DHT22;56302;52.322;5.926;2023-04-22T11:22:40;18.20;67.40
69189;DHT22;56302;52.322;5.926;2023-04-22T11:25:06;17.90;67.30
69189;DHT22;56302;52.322;5.926;2023-04-22T11:27:34;18.00;70.60
69189;DHT22;56302;52.322;5.926;2023-04-22T11:30:19;18.50;67.10
69189;DHT22;56302;52.322;5.926;2023-04-22T11:32:47;18.40;66.20
69189;DHT22;56302;52.322;5.926;2023-04-22T11:35:19;18.60;65.40
69189;DHT22;56302;52.322;5.926;2023-04-22T11:37:49;18.10;67.20
69189;DHT22;56302;52.322;5.926;2023-04-22T11:40:17;18.10;68.30
69189;DHT22;56302;52.322;5.926;2023-04-22T11:42:44;18.30;69.00
69189;DHT22;56302;52.322;5.926;2023-04-22T11:45:10;18.30;68.70
69189;DHT22;56302;52.322;5.926;2023-04-22T11:47:38;18.20;68.30
69189;DHT22;56302;52.322;5.926;2023-04-22T11:50:06;18.20;67.80
69189;DHT22;56302;52.322;5.926;2023-04-22T11:55:22;18.90;68.00
69189;DHT22;56302;52.322;5.926;2023-04-22T11:57:53;19.00;63.40
69189;DHT22;56302;52.322;5.926;2023-04-22T12:00:19;19.10;64.60
69189;DHT22;56302;52.322;5.926;2023-04-22T12:03:00;19.30;65.70
69189;DHT22;56302;52.322;5.926;2023-04-22T12:05:38;19.20;63.80
69189;DHT22;56302;52.322;5.926;2023-04-22T12:08:15;18.90;66.10
69189;DHT22;56302;52.322;5.926;2023-04-22T12:10:58;18.60;64.80
69189;DHT22;56302;52.322;5.926;2023-04-22T12:18:35;18.30;65.80
69189;DHT22;56302;52.322;5.926;2023-04-22T12:21:08;18.00;65.80
69189;DHT22;56302;52.322;5.926;2023-04-22T12:26:07;17.80;67.50
69189;DHT22;56302;52.322;5.926;2023-04-22T12:28:32;17.70;68.80
69189;DHT22;56302;52.322;5.926;2023-04-22T12:30:58;17.70;67.70
69189;DHT22;56302;52.322;5.926;2023-04-22T12:33:23;17.80;67.60
69189;DHT22;56302;52.322;5.926;2023-04-22T12:35:49;17.80;66.90
69189;DHT22;56302;52.322;5.926;2023-04-22T12:38:17;17.60;66.80
69189;DHT22;56302;52.322;5.926;2023-04-22T12:40:42;17.50;68.70
69189;DHT22;56302;52.322;5.926;2023-04-22T12:43:08;17.40;69.90
69189;DHT22;56302;52.322;5.926;2023-04-22T12:45:34;17.30;71.10
69189;DHT22;56302;52.322;5.926;2023-04-22T12:47:59;17.20;73.20
69189;DHT22;56302;52.322;5.926;2023-04-22T12:50:25;17.20;75.40
69189;DHT22;56302;52.322;5.926;2023-04-22T12:52:51;17.10;76.40
69189;DHT22;56302;52.322;5.926;2023-04-22T12:55:17;17.00;77.30
69189;DHT22;56302;52.322;5.926;2023-04-22T12:57:47;16.90;78.70
69189;DHT22;56302;52.322;5.926;2023-04-22T13:00:13;16.80;79.80
69189;DHT22;56302;52.322;5.926;2023-04-22T13:02:43;16.60;80.50
69189;DHT22;56302;52.322;5.926;2023-04-22T13:05:09;16.60;80.90
69189;DHT22;56302;52.322;5.926;2023-04-22T13:07:36;16.60;81.50
69189;DHT22;56302;52.322;5.926;2023-04-22T13:10:03;16.60;81.60
69189;DHT22;56302;52.322;5.926;2023-04-22T13:12:29;16.70;83.40
69189;DHT22;56302;52.322;5.926;2023-04-22T13:14:54;16.90;83.10
69189;DHT22;56302;52.322;5.926;2023-04-22T13:17:20;16.90;82.80
69189;DHT22;56302;52.322;5.926;2023-04-22T13:19:47;17.00;82.70
69189;DHT22;56302;52.322;5.926;2023-04-22T13:22:12;16.90;82.40
69189;DHT22;56302;52.322;5.926;2023-04-22T13:24:38;16.90;81.70
69189;DHT22;56302;52.322;5.926;2023-04-22T13:27:04;16.70;81.80
69189;DHT22;56302;52.322;5.926;2023-04-22T13:29:32;16.60;82.00
69189;DHT22;56302;52.322;5.926;2023-04-22T13:31:57;16.50;82.20
69189;DHT22;56302;52.322;5.926;2023-04-22T13:34:24;16.40;82.70
69189;DHT22;56302;52.322;5.926;2023-04-22T13:36:50;16.40;83.00
69189;DHT22;56302;52.322;5.926;2023-04-22T13:39:16;16.50;82.60
69189;DHT22;56302;52.322;5.926;2023-04-22T13:41:43;16.30;83.30
69189;DHT22;56302;52.322;5.926;2023-04-22T13:44:10;16.30;83.50
69189;DHT22;56302;52.322;5.926;2023-04-22T13:46:36;16.20;83.70
69189;DHT22;56302;52.322;5.926;2023-04-22T13:49:01;16.20;84.00
69189;DHT22;56302;52.322;5.926;2023-04-22T13:51:27;16.10;84.20
69189;DHT22;56302;52.322;5.926;2023-04-22T13:53:53;16.10;84.50
69189;DHT22;56302;52.322;5.926;2023-04-22T13:56:18;16.00;84.80
69189;DHT22;56302;52.322;5.926;2023-04-22T13:58:44;15.90;85.30
69189;DHT22;56302;52.322;5.926;2023-04-22T14:01:09;15.90;85.40
69189;DHT22;56302;52.322;5.926;2023-04-22T14:03:35;15.70;86.10
69189;DHT22;56302;52.322;5.926;2023-04-22T14:06:01;15.60;86.80
69189;DHT22;56302;52.322;5.926;2023-04-22T14:08:28;15.40;87.10
69189;DHT22;56302;52.322;5.926;2023-04-22T14:10:53;15.20;87.90
69189;DHT22;56302;52.322;5.926;2023-04-22T14:13:19;15.20;88.60
69189;DHT22;56302;52.322;5.926;2023-04-22T14:15:45;15.10;88.40
69189;DHT22;56302;52.322;5.926;2023-04-22T14:18:11;15.20;88.80
69189;DHT22;56302;52.322;5.926;2023-04-22T14:20:37;15.10;88.80
69189;DHT22;56302;52.322;5.926;2023-04-22T14:23:03;15.10;88.90
69189;DHT22;56302;52.322;5.926;2023-04-22T14:25:30;15.10;88.80
69189;DHT22;56302;52.322;5.926;2023-04-22T14:27:55;15.20;88.90
69189;DHT22;56302;52.322;5.926;2023-04-22T14:30:21;15.10;88.90
69189;DHT22;56302;52.322;5.926;2023-04-22T14:32:47;15.20;88.70
69189;DHT22;56302;52.322;5.926;2023-04-22T14:35:13;15.00;87.90
69189;DHT22;56302;52.322;5.926;2023-04-22T14:37:39;15.00;88.70
69189;DHT22;56302;52.322;5.926;2023-04-22T14:40:06;15.00;88.50
69189;DHT22;56302;52.322;5.926;2023-04-22T14:42:32;15.00;88.80
69189;DHT22;56302;52.322;5.926;2023-04-22T14:44:58;14.90;89.00
69189;DHT22;56302;52.322;5.926;2023-04-22T14:47:23;14.80;89.10
69189;DHT22;56302;52.322;5.926;2023-04-22T14:49:49;14.90;89.20
69189;DHT22;56302;52.322;5.926;2023-04-22T14:52:15;14.90;89.30
69189;DHT22;56302;52.322;5.926;2023-04-22T14:54:40;15.00;88.60
69189;DHT22;56302;52.322;5.926;2023-04-22T14:57:06;15.00;88.60
69189;DHT22;56302;52.322;5.926;2023-04-22T14:59:31;15.00;88.10
69189;DHT22;56302;52.322;5.926;2023-04-22T15:01:57;15.00;88.00
69189;DHT22;56302;52.322;5.926;2023-04-22T15:04:23;15.00;88.50
69189;DHT22;56302;52.322;5.926;2023-04-22T15:06:48;15.00;88.50
69189;DHT22;56302;52.322;5.926;2023-04-22T15:09:14;15.00;88.60
69189;DHT22;56302;52.322;5.926;2023-04-22T15:11:39;15.00;89.00
69189;DHT22;56302;52.322;5.926;2023-04-22T15:14:05;15.00;88.70
69189;DHT22;56302;52.322;5.926;2023-04-22T15:16:30;15.00;88.80
69189;DHT22;56302;52.322;5.926;2023-04-22T15:18:56;15.00;88.80
69189;DHT22;56302;52.322;5.926;2023-04-22T15:21:21;15.00;89.30
69189;DHT22;56302;52.322;5.926;2023-04-22T15:23:47;15.10;89.00
69189;DHT22;56302;52.322;5.926;2023-04-22T15:26:12;15.00;89.30
69189;DHT22;56302;52.322;5.926;2023-04-22T15:28:39;15.00;89.70
69189;DHT22;56302;52.322;5.926;2023-04-22T15:31:04;14.80;89.70
69189;DHT22;56302;52.322;5.926;2023-04-22T15:33:30;14.70;89.60
69189;DHT22;56302;52.322;5.926;2023-04-22T15:35:56;14.60;90.00
69189;DHT22;56302;52.322;5.926;2023-04-22T15:38:22;14.60;90.00
69189;DHT22;56302;52.322;5.926;2023-04-22T15:40:49;14.60;89.60
69189;DHT22;56302;52.322;5.926;2023-04-22T15:43:14;14.60;89.90
69189;DHT22;56302;52.322;5.926;2023-04-22T15:45:40;14.60;89.60
69189;DHT22;56302;52.322;5.926;2023-04-22T15:48:05;14.60;89.70
69189;DHT22;56302;52.322;5.926;2023-04-22T15:50:31;14.50;89.90
69189;DHT22;56302;52.322;5.926;2023-04-22T15:52:56;14.50;90.00
69189;DHT22;56302;52.322;5.926;2023-04-22T15:55:22;14.50;90.60
69189;DHT22;56302;52.322;5.926;2023-04-22T15:57:47;14.60;90.00
69189;DHT22;56302;52.322;5.926;2023-04-22T16:00:13;14.50;89.90
69189;DHT22;56302;52.322;5.926;2023-04-22T16:02:40;14.50;89.70